Flight Track Log - Related Links

Times and Time Zones

All times are in EDT time to prevent confusion due to time zone crossing. See the SKW4822 flight status page for this flight to view local times or setup timezone preferences in your user account.

Time Position Orientation Groundspeed Altitude Reporting Facility
EDT Latitude Longitude Course Direction KTS MPH feet Rate Location/Type
Mon 07:50:45 PM 41.9833 -87.8833 North 151 174 1,700  Level Chicago TRACON
Mon 07:51:45 PM 41.9667 -87.8167 109° East 209 241 3,700 2,328 Climbing Chicago TRACON
Mon 07:53:00 PM 42.2701 -87.8033 10° North  Level FlightAware Approximate
Mon 07:54:00 PM 42.3718 -87.7725 20° North  Level FlightAware Approximate
Mon 07:54:06 PM 42.0219 -87.6153 70° East 302 348 9,500  Level Chicago Center
Mon 07:55:00 PM 42.4727 -87.7388 North  Level FlightAware Approximate
Mon 07:55:07 PM 42.1128 -87.6633 339° North 303 349 13,200  Level Chicago Center
Mon 07:56:09 PM 42.1972 -87.6914 346° North 330 380 15,900 2,226 Climbing Chicago Center
Mon 07:57:11 PM 42.2894 -87.6842 North 338 389 17,800 2,081 Climbing Chicago Center
Mon 07:58:13 PM 42.3906 -87.6747 North 362 417 20,200 2,333 Climbing Chicago Center
Mon 07:59:17 PM 42.5172 -87.6625 North 382 440 22,700 2,190 Climbing Chicago Center
Mon 08:00:19 PM 42.6275 -87.6522 North 390 449 24,800 1,113 Climbing Chicago Center
Mon 08:01:21 PM 42.7439 -87.6406 North 420 483 25,000 97 Climbing Chicago Center
Mon 08:02:23 PM 42.8428 -87.5472 35° Northeast 448 516 25,000  Level Chicago Center
Mon 08:03:24 PM 42.8808 -87.3828 72° East 454 522 25,000  Level Chicago Center
Mon 08:04:26 PM 42.9219 -87.1961 73° East 455 524 25,000  Level Chicago Center
Mon 08:05:28 PM 42.9586 -87.0286 73° East 460 529 25,000  Level Chicago Center
Mon 08:06:30 PM 42.9947 -86.8642 73° East 455 524 25,000  Level Chicago Center
Mon 08:07:32 PM 43.0297 -86.7003 74° East 450 518 25,000  Level Chicago Center
Mon 08:08:33 PM 43.0614 -86.5561 73° East 399 459 25,000  Level Chicago Center
Mon 08:09:35 PM 43.0894 -86.4225 74° East 368 423 25,000  Level Chicago Center
Mon 08:10:37 PM 43.1192 -86.2800 74° East 383 441 25,000  Level Chicago Center
Mon 08:11:39 PM 43.1494 -86.1375 74° East 386 444 25,000  Level Chicago Center
Mon 08:12:40 PM 43.1758 -85.9931 76° East 383 441 25,000 -195 Level Chicago Center
Mon 08:13:42 PM 43.1886 -85.8478 83° East 378 435 24,600 -774 Descending Chicago Center
Mon 08:14:44 PM 43.2067 -85.6569 83° East 420 483 23,400 -774 Descending Chicago Center
Mon 08:15:46 PM 43.2228 -85.4897 82° East 437 503 23,000 -212 Descending Chicago Center
Mon 08:16:37 PM 43.2375 -85.3458 82° East 439 505 23,000  Level Cleveland Center
Mon 08:17:37 PM 43.2400 -85.1806 89° East 439 505 23,000  Level Cleveland Center
Mon 08:18:37 PM 43.2106 -85.0217 104° East 429 494 23,000  Level Cleveland Center
Mon 08:19:37 PM 43.1792 -84.8628 105° East 429 494 23,000  Level Cleveland Center
Mon 08:20:37 PM 43.1494 -84.7069 105° East 429 494 23,000  Level Cleveland Center
Mon 08:21:37 PM 43.1217 -84.5486 103° East 429 494 23,000  Level Cleveland Center
Mon 08:21:56 PM 43.1189 -84.5289 101° East 426 490 23,000 -593 Level Chicago Center
Mon 08:22:58 PM 43.0842 -84.3381 104° East 431 496 22,200 -1,307 Descending Chicago Center
Mon 08:23:37 PM 43.0625 -84.2519 109° East 424 488 20,800 -2,424 Descending Cleveland Center
Mon 08:24:37 PM 43.0339 -84.1025 105° East 414 476 18,200 -2,526 Descending Cleveland Center
Mon 08:25:12 PM 43.0181 -84.0050 102° East 385 443 16,800 -2,200 Descending Cleveland Center
Mon 08:25:37 PM 43.0067 -83.9675 113° Southeast 395 455 16,000 -2,459 Descending Cleveland Center
Mon 08:26:13 PM 42.9886 -83.8644 103° East 379 436 14,300 -2,500 Descending Cleveland Center
Mon 08:26:37 PM 42.9711 -83.8294 124° Southeast 382 440 13,500 -2,200 Descending Cleveland Center
Mon 08:27:13 PM 42.9161 -83.7811 147° Southeast 350 403 12,100 -1,500 Descending Cleveland Center
Mon 08:27:37 PM 42.8894 -83.7656 157° South 329 379 12,000 -97 Descending Cleveland Center
Mon 08:28:15 PM 42.8381 -83.7375 158° South 280 322 12,000  Level Cleveland Center
Mon 08:28:37 PM 42.8156 -83.7250 158° South 302 348 12,000 -1,100 Level Cleveland Center
Mon 08:29:15 PM 42.7581 -83.6911 157° South 282 325 10,900 -1,500 Descending Cleveland Center
Mon 08:29:37 PM 42.7436 -83.6819 155° Southeast 295 339 10,500 -1,452 Descending Cleveland Center
Mon 08:30:17 PM 42.6883 -83.6481 156° South 281 323 9,400 -1,500 Descending Cleveland Center
Mon 08:30:37 PM 42.6719 -83.6389 158° South 288 331 9,000 -1,571 Descending Cleveland Center
Mon 08:30:59 PM 42.6400 -83.6181 154° Southeast 272 313 8,300 -1,571 Descending FAA TRACON SMA TRACON (SMA)
Mon 08:31:19 PM 42.6192 -83.6053 156° South 270 311 7,900 -1,350 Descending FAA TRACON SMA TRACON (SMA)
Mon 08:31:39 PM 42.6031 -83.5825 134° Southeast 276 318 7,400 -1,650 Descending FAA TRACON SMA TRACON (SMA)
Mon 08:31:59 PM 42.5844 -83.5536 131° Southeast 264 304 6,800 -1,500 Descending FAA TRACON SMA TRACON (SMA)
Mon 08:32:19 PM 42.5683 -83.5294 132° Southeast 264 304 6,400 -1,105 Descending Cleveland Center
Mon 08:32:37 PM 42.5561 -83.5147 138° Southeast 274 315 6,100 -400 Descending Cleveland Center
Mon 08:33:19 PM 42.5203 -83.4539 129° Southeast 277 319 6,000 -100 Descending Cleveland Center
Mon 08:33:37 PM 42.5081 -83.4364 133° Southeast 268 308 6,000  Level Cleveland Center
Mon 08:34:19 PM 42.4736 -83.3744 127° Southeast 264 304 6,000 -484 Level FAA TRACON SMA TRACON (SMA)
Mon 08:34:39 PM 42.4564 -83.3450 128° Southeast 258 297 5,500 -1,500 Descending FAA TRACON SMA TRACON (SMA)
Mon 08:34:59 PM 42.4428 -83.3228 130° Southeast 251 289 5,000 -1,500 Descending FAA TRACON SMA TRACON (SMA)
Mon 08:35:19 PM 42.4228 -83.3142 162° South 237 273 4,500 -1,317 Descending FAA TRACON SMA TRACON (SMA)
Mon 08:35:40 PM 42.3983 -83.3086 170° South 230 265 4,100 -878 Descending FAA TRACON SMA TRACON (SMA)
Mon 08:36:00 PM 42.3808 -83.3042 169° South 213 245 3,900 -900 Descending FAA TRACON SMA TRACON (SMA)
Mon 08:36:20 PM 42.3619 -83.3000 171° South 186 214 3,500 -1,050 Descending FAA TRACON SMA TRACON (SMA)
Mon 08:36:40 PM 42.3453 -83.2967 172° South 174 200 3,200 -769 Descending FAA TRACON SMA TRACON (SMA)
Mon 08:36:59 PM 42.3311 -83.2969 181° South 172 198 3,000 -769 Descending FAA TRACON SMA TRACON (SMA)
Mon 08:37:19 PM 42.3144 -83.3028 195° South 173 199 2,700 -750 Descending FAA TRACON SMA TRACON (SMA)
Mon 08:37:39 PM 42.2997 -83.3128 207° Southwest 176 203 2,500 -750 Descending FAA TRACON SMA TRACON (SMA)
Mon 08:37:59 PM 42.2861 -83.3228 209° Southwest 164 189 2,200 -900 Descending FAA TRACON SMA TRACON (SMA)
Mon 08:38:19 PM 42.2764 -83.3300 209° Southwest 142 163 1,900 -900 Descending FAA TRACON SMA TRACON (SMA)
Mon 08:38:39 PM 42.2631 -83.3394 208° Southwest 139 160 1,600 -900 Descending FAA TRACON SMA TRACON (SMA)

Login

Don't have an account? Register now (free) for customized features, flight alerts, and more!